sensor_id;sensor_type;location;lat;lon;timestamp;temperature;humidity
15765;DHT22;7983;50.744;7.086;2023-04-24T00:02:25;13.90;99.90
15765;DHT22;7983;50.744;7.086;2023-04-24T00:04:51;13.90;99.90
15765;DHT22;7983;50.744;7.086;2023-04-24T00:07:19;13.80;99.90
15765;DHT22;7983;50.744;7.086;2023-04-24T00:09:45;13.90;99.90
15765;DHT22;7983;50.744;7.086;2023-04-24T00:12:16;13.90;99.90
15765;DHT22;7983;50.744;7.086;2023-04-24T00:14:41;13.90;99.90
15765;DHT22;7983;50.744;7.086;2023-04-24T00:17:07;13.90;99.90
15765;DHT22;7983;50.744;7.086;2023-04-24T00:19:35;13.90;99.90
15765;DHT22;7983;50.744;7.086;2023-04-24T00:22:04;13.90;99.90
15765;DHT22;7983;50.744;7.086;2023-04-24T00:24:29;13.90;99.90
15765;DHT22;7983;50.744;7.086;2023-04-24T00:26:57;13.80;99.90
15765;DHT22;7983;50.744;7.086;2023-04-24T00:29:23;13.90;99.90
15765;DHT22;7983;50.744;7.086;2023-04-24T00:31:51;13.90;99.90
15765;DHT22;7983;50.744;7.086;2023-04-24T00:34:16;13.80;99.90
15765;DHT22;7983;50.744;7.086;2023-04-24T00:36:44;13.80;99.90
15765;DHT22;7983;50.744;7.086;2023-04-24T00:39:10;13.80;99.90
15765;DHT22;7983;50.744;7.086;2023-04-24T00:41:36;13.90;99.90
15765;DHT22;7983;50.744;7.086;2023-04-24T00:44:06;13.90;99.90
15765;DHT22;7983;50.744;7.086;2023-04-24T00:46:31;13.90;99.90
15765;DHT22;7983;50.744;7.086;2023-04-24T00:49:01;13.90;99.90
15765;DHT22;7983;50.744;7.086;2023-04-24T00:51:27;13.90;99.90
15765;DHT22;7983;50.744;7.086;2023-04-24T00:53:58;13.90;99.90
15765;DHT22;7983;50.744;7.086;2023-04-24T00:56:24;13.90;99.90
15765;DHT22;7983;50.744;7.086;2023-04-24T00:58:50;13.90;99.90
15765;DHT22;7983;50.744;7.086;2023-04-24T01:01:18;13.90;99.90
15765;DHT22;7983;50.744;7.086;2023-04-24T01:03:46;13.90;99.90
15765;DHT22;7983;50.744;7.086;2023-04-24T01:06:12;13.80;99.90
15765;DHT22;7983;50.744;7.086;2023-04-24T01:08:38;13.90;99.90
15765;DHT22;7983;50.744;7.086;2023-04-24T01:11:10;13.90;99.90
15765;DHT22;7983;50.744;7.086;2023-04-24T01:13:38;13.90;99.90
15765;DHT22;7983;50.744;7.086;2023-04-24T01:16:03;13.80;99.90
15765;DHT22;7983;50.744;7.086;2023-04-24T01:18:29;13.90;99.90
15765;DHT22;7983;50.744;7.086;2023-04-24T01:20:58;13.80;99.90
15765;DHT22;7983;50.744;7.086;2023-04-24T01:23:24;13.90;99.90
15765;DHT22;7983;50.744;7.086;2023-04-24T01:25:52;13.80;99.90
15765;DHT22;7983;50.744;7.086;2023-04-24T01:28:18;13.80;99.90
15765;DHT22;7983;50.744;7.086;2023-04-24T01:30:44;13.80;99.90
15765;DHT22;7983;50.744;7.086;2023-04-24T01:33:10;13.80;99.90
15765;DHT22;7983;50.744;7.086;2023-04-24T01:35:40;13.70;99.90
15765;DHT22;7983;50.744;7.086;2023-04-24T01:38:08;13.70;99.90
15765;DHT22;7983;50.744;7.086;2023-04-24T01:40:34;13.60;99.90
15765;DHT22;7983;50.744;7.086;2023-04-24T01:43:02;13.60;99.90
15765;DHT22;7983;50.744;7.086;2023-04-24T01:45:28;13.50;99.90
15765;DHT22;7983;50.744;7.086;2023-04-24T01:47:56;13.40;99.90
15765;DHT22;7983;50.744;7.086;2023-04-24T01:50:22;13.50;99.90
15765;DHT22;7983;50.744;7.086;2023-04-24T01:52:48;13.40;99.90
15765;DHT22;7983;50.744;7.086;2023-04-24T01:55:13;13.30;99.90
15765;DHT22;7983;50.744;7.086;2023-04-24T01:57:41;13.30;99.90
15765;DHT22;7983;50.744;7.086;2023-04-24T02:00:09;13.20;99.90
15765;DHT22;7983;50.744;7.086;2023-04-24T02:02:39;13.20;99.90
15765;DHT22;7983;50.744;7.086;2023-04-24T02:05:08;13.20;99.90
15765;DHT22;7983;50.744;7.086;2023-04-24T02:07:34;13.10;99.90
15765;DHT22;7983;50.744;7.086;2023-04-24T02:09:59;13.10;99.90
15765;DHT22;7983;50.744;7.086;2023-04-24T02:12:25;13.10;99.90
15765;DHT22;7983;50.744;7.086;2023-04-24T02:14:51;13.00;99.90
15765;DHT22;7983;50.744;7.086;2023-04-24T02:17:19;13.00;99.90
15765;DHT22;7983;50.744;7.086;2023-04-24T02:19:45;13.00;99.90
15765;DHT22;7983;50.744;7.086;2023-04-24T02:22:13;12.90;99.90
15765;DHT22;7983;50.744;7.086;2023-04-24T02:24:39;12.80;99.90
15765;DHT22;7983;50.744;7.086;2023-04-24T02:27:07;12.80;99.90
15765;DHT22;7983;50.744;7.086;2023-04-24T02:29:32;12.70;99.90
15765;DHT22;7983;50.744;7.086;2023-04-24T02:31:58;12.70;99.90
15765;DHT22;7983;50.744;7.086;2023-04-24T02:34:24;12.60;99.90
15765;DHT22;7983;50.744;7.086;2023-04-24T02:36:49;12.50;99.90
15765;DHT22;7983;50.744;7.086;2023-04-24T02:39:15;12.40;99.90
15765;DHT22;7983;50.744;7.086;2023-04-24T02:41:46;12.40;99.90
15765;DHT22;7983;50.744;7.086;2023-04-24T02:44:14;12.30;99.90
15765;DHT22;7983;50.744;7.086;2023-04-24T02:46:40;12.20;99.90
15765;DHT22;7983;50.744;7.086;2023-04-24T02:49:07;12.20;99.90
15765;DHT22;7983;50.744;7.086;2023-04-24T02:51:33;12.10;99.90
15765;DHT22;7983;50.744;7.086;2023-04-24T02:53:58;12.00;99.90
15765;DHT22;7983;50.744;7.086;2023-04-24T02:56:26;11.90;99.90
15765;DHT22;7983;50.744;7.086;2023-04-24T02:58:54;11.90;99.90
15765;DHT22;7983;50.744;7.086;2023-04-24T03:01:22;11.80;99.90
15765;DHT22;7983;50.744;7.086;2023-04-24T03:03:47;11.80;99.90
15765;DHT22;7983;50.744;7.086;2023-04-24T03:06:13;11.70;99.90
15765;DHT22;7983;50.744;7.086;2023-04-24T03:08:39;11.60;99.90
15765;DHT22;7983;50.744;7.086;2023-04-24T03:11:04;11.60;99.90
15765;DHT22;7983;50.744;7.086;2023-04-24T03:13:35;11.50;99.90
15765;DHT22;7983;50.744;7.086;2023-04-24T03:16:00;11.50;99.90
15765;DHT22;7983;50.744;7.086;2023-04-24T03:18:26;11.40;99.90
15765;DHT22;7983;50.744;7.086;2023-04-24T03:20:52;11.40;99.90
15765;DHT22;7983;50.744;7.086;2023-04-24T03:23:19;11.40;99.90
15765;DHT22;7983;50.744;7.086;2023-04-24T03:25:47;11.40;99.90
15765;DHT22;7983;50.744;7.086;2023-04-24T03:28:14;11.30;99.90
15765;DHT22;7983;50.744;7.086;2023-04-24T03:30:39;11.20;99.90
15765;DHT22;7983;50.744;7.086;2023-04-24T03:33:07;11.30;99.90
15765;DHT22;7983;50.744;7.086;2023-04-24T03:35:33;11.20;99.90
15765;DHT22;7983;50.744;7.086;2023-04-24T03:38:03;11.20;99.90
15765;DHT22;7983;50.744;7.086;2023-04-24T03:40:32;11.10;99.90
15765;DHT22;7983;50.744;7.086;2023-04-24T03:43:01;11.10;99.90
15765;DHT22;7983;50.744;7.086;2023-04-24T03:45:28;11.10;99.90
15765;DHT22;7983;50.744;7.086;2023-04-24T03:47:56;11.10;99.90
15765;DHT22;7983;50.744;7.086;2023-04-24T03:50:22;11.10;99.90
15765;DHT22;7983;50.744;7.086;2023-04-24T03:52:50;11.00;99.90
15765;DHT22;7983;50.744;7.086;2023-04-24T03:55:16;11.00;99.90
15765;DHT22;7983;50.744;7.086;2023-04-24T03:57:44;11.00;99.90
15765;DHT22;7983;50.744;7.086;2023-04-24T04:00:14;11.00;99.90
15765;DHT22;7983;50.744;7.086;2023-04-24T04:02:43;10.90;99.90
15765;DHT22;7983;50.744;7.086;2023-04-24T04:05:09;10.90;99.90
15765;DHT22;7983;50.744;7.086;2023-04-24T04:07:39;10.90;99.90
15765;DHT22;7983;50.744;7.086;2023-04-24T04:10:05;10.90;99.90
15765;DHT22;7983;50.744;7.086;2023-04-24T04:12:33;10.90;99.90
15765;DHT22;7983;50.744;7.086;2023-04-24T04:14:59;10.90;99.90
15765;DHT22;7983;50.744;7.086;2023-04-24T04:17:25;10.90;99.90
15765;DHT22;7983;50.744;7.086;2023-04-24T04:19:53;10.90;99.90
15765;DHT22;7983;50.744;7.086;2023-04-24T04:22:21;10.90;99.90
15765;DHT22;7983;50.744;7.086;2023-04-24T04:24:47;10.90;99.90
15765;DHT22;7983;50.744;7.086;2023-04-24T04:27:13;10.90;99.90
15765;DHT22;7983;50.744;7.086;2023-04-24T04:29:40;10.80;99.90
15765;DHT22;7983;50.744;7.086;2023-04-24T04:32:07;10.80;99.90
15765;DHT22;7983;50.744;7.086;2023-04-24T04:34:33;10.80;99.90
15765;DHT22;7983;50.744;7.086;2023-04-24T04:36:58;10.80;99.90
15765;DHT22;7983;50.744;7.086;2023-04-24T04:39:27;10.80;99.90
15765;DHT22;7983;50.744;7.086;2023-04-24T04:41:53;10.80;99.90
15765;DHT22;7983;50.744;7.086;2023-04-24T04:44:21;10.80;99.90
15765;DHT22;7983;50.744;7.086;2023-04-24T04:46:47;10.80;99.90
15765;DHT22;7983;50.744;7.086;2023-04-24T04:49:15;10.80;99.90
15765;DHT22;7983;50.744;7.086;2023-04-24T04:51:42;10.80;99.90
15765;DHT22;7983;50.744;7.086;2023-04-24T04:54:07;10.90;99.90
15765;DHT22;7983;50.744;7.086;2023-04-24T04:56:33;10.90;99.90
15765;DHT22;7983;50.744;7.086;2023-04-24T04:58:59;11.00;99.90
15765;DHT22;7983;50.744;7.086;2023-04-24T05:01:27;11.00;99.90
15765;DHT22;7983;50.744;7.086;2023-04-24T05:03:55;11.10;99.90
15765;DHT22;7983;50.744;7.086;2023-04-24T05:06:23;11.10;99.90
15765;DHT22;7983;50.744;7.086;2023-04-24T05:08:49;11.10;99.90
15765;DHT22;7983;50.744;7.086;2023-04-24T05:11:23;11.10;99.90
15765;DHT22;7983;50.744;7.086;2023-04-24T05:13:49;11.20;99.90
15765;DHT22;7983;50.744;7.086;2023-04-24T05:16:14;11.10;99.90
15765;DHT22;7983;50.744;7.086;2023-04-24T05:18:40;11.20;99.90
15765;DHT22;7983;50.744;7.086;2023-04-24T05:21:09;11.20;99.90
15765;DHT22;7983;50.744;7.086;2023-04-24T05:23:37;11.20;99.90
15765;DHT22;7983;50.744;7.086;2023-04-24T05:26:05;11.20;99.90
15765;DHT22;7983;50.744;7.086;2023-04-24T05:28:35;11.20;99.90
15765;DHT22;7983;50.744;7.086;2023-04-24T05:31:03;11.20;99.90
15765;DHT22;7983;50.744;7.086;2023-04-24T05:33:29;11.20;99.90
15765;DHT22;7983;50.744;7.086;2023-04-24T05:35:55;11.20;99.90
15765;DHT22;7983;50.744;7.086;2023-04-24T05:38:20;11.30;99.90
15765;DHT22;7983;50.744;7.086;2023-04-24T05:40:46;11.30;99.90
15765;DHT22;7983;50.744;7.086;2023-04-24T05:43:12;11.30;99.90
15765;DHT22;7983;50.744;7.086;2023-04-24T05:45:41;11.30;99.90
15765;DHT22;7983;50.744;7.086;2023-04-24T05:48:09;11.30;99.90
15765;DHT22;7983;50.744;7.086;2023-04-24T05:50:37;11.40;99.90
15765;DHT22;7983;50.744;7.086;2023-04-24T05:53:03;11.30;99.90
15765;DHT22;7983;50.744;7.086;2023-04-24T05:55:30;11.40;99.90
15765;DHT22;7983;50.744;7.086;2023-04-24T05:57:55;11.40;99.90
15765;DHT22;7983;50.744;7.086;2023-04-24T06:00:24;11.40;99.90
15765;DHT22;7983;50.744;7.086;2023-04-24T06:02:49;11.40;99.90
15765;DHT22;7983;50.744;7.086;2023-04-24T06:05:18;11.40;99.90
15765;DHT22;7983;50.744;7.086;2023-04-24T06:07:46;11.40;99.90
15765;DHT22;7983;50.744;7.086;2023-04-24T06:10:11;11.40;99.90
15765;DHT22;7983;50.744;7.086;2023-04-24T06:12:37;11.40;99.90
15765;DHT22;7983;50.744;7.086;2023-04-24T06:15:03;11.40;99.90
15765;DHT22;7983;50.744;7.086;2023-04-24T06:17:30;11.50;99.90
15765;DHT22;7983;50.744;7.086;2023-04-24T06:20:01;11.50;99.90
15765;DHT22;7983;50.744;7.086;2023-04-24T06:22:26;11.50;99.90
15765;DHT22;7983;50.744;7.086;2023-04-24T06:24:52;11.50;99.90
15765;DHT22;7983;50.744;7.086;2023-04-24T06:27:20;11.50;99.90
15765;DHT22;7983;50.744;7.086;2023-04-24T06:29:45;11.50;99.90
15765;DHT22;7983;50.744;7.086;2023-04-24T06:32:11;11.50;99.90
15765;DHT22;7983;50.744;7.086;2023-04-24T06:34:37;11.50;99.90
15765;DHT22;7983;50.744;7.086;2023-04-24T06:37:05;11.60;99.90
15765;DHT22;7983;50.744;7.086;2023-04-24T06:39:30;11.50;99.90
15765;DHT22;7983;50.744;7.086;2023-04-24T06:41:58;11.60;99.90
15765;DHT22;7983;50.744;7.086;2023-04-24T06:44:24;11.60;99.90
15765;DHT22;7983;50.744;7.086;2023-04-24T06:46:52;11.70;99.90
15765;DHT22;7983;50.744;7.086;2023-04-24T06:49:18;11.60;99.90
15765;DHT22;7983;50.744;7.086;2023-04-24T06:51:43;11.60;99.90
15765;DHT22;7983;50.744;7.086;2023-04-24T06:54:12;11.60;99.90
15765;DHT22;7983;50.744;7.086;2023-04-24T06:56:38;11.60;99.90
15765;DHT22;7983;50.744;7.086;2023-04-24T06:59:06;11.70;99.90
15765;DHT22;7983;50.744;7.086;2023-04-24T07:01:31;11.60;99.90
15765;DHT22;7983;50.744;7.086;2023-04-24T07:03:57;11.50;99.90
15765;DHT22;7983;50.744;7.086;2023-04-24T07:06:23;11.40;99.90
15765;DHT22;7983;50.744;7.086;2023-04-24T07:08:49;11.40;99.90
15765;DHT22;7983;50.744;7.086;2023-04-24T07:11:16;11.30;99.90
15765;DHT22;7983;50.744;7.086;2023-04-24T07:13:44;11.20;99.90
15765;DHT22;7983;50.744;7.086;2023-04-24T07:16:12;11.20;99.90
15765;DHT22;7983;50.744;7.086;2023-04-24T07:18:38;11.10;99.90
15765;DHT22;7983;50.744;7.086;2023-04-24T07:21:05;11.20;99.90
15765;DHT22;7983;50.744;7.086;2023-04-24T07:23:30;11.10;99.90
15765;DHT22;7983;50.744;7.086;2023-04-24T07:25:56;11.10;99.90
15765;DHT22;7983;50.744;7.086;2023-04-24T07:28:22;11.00;99.90
15765;DHT22;7983;50.744;7.086;2023-04-24T07:30:51;11.00;99.90
15765;DHT22;7983;50.744;7.086;2023-04-24T07:33:19;11.00;99.90
15765;DHT22;7983;50.744;7.086;2023-04-24T07:35:44;11.00;99.90
15765;DHT22;7983;50.744;7.086;2023-04-24T07:38:14;11.00;99.90
15765;DHT22;7983;50.744;7.086;2023-04-24T07:40:40;10.90;99.90
15765;DHT22;7983;50.744;7.086;2023-04-24T07:43:08;10.90;99.90
15765;DHT22;7983;50.744;7.086;2023-04-24T07:45:33;10.90;99.90
15765;DHT22;7983;50.744;7.086;2023-04-24T07:48:03;10.90;99.90
15765;DHT22;7983;50.744;7.086;2023-04-24T07:50:28;10.80;99.90
15765;DHT22;7983;50.744;7.086;2023-04-24T07:52:54;10.90;99.90
15765;DHT22;7983;50.744;7.086;2023-04-24T07:55:20;10.80;99.90
15765;DHT22;7983;50.744;7.086;2023-04-24T07:57:45;10.80;99.90
15765;DHT22;7983;50.744;7.086;2023-04-24T08:00:13;10.70;99.90
15765;DHT22;7983;50.744;7.086;2023-04-24T08:02:43;10.70;99.90
15765;DHT22;7983;50.744;7.086;2023-04-24T08:05:11;10.60;99.90
15765;DHT22;7983;50.744;7.086;2023-04-24T08:07:38;10.60;99.90
15765;DHT22;7983;50.744;7.086;2023-04-24T08:10:09;10.50;99.90
15765;DHT22;7983;50.744;7.086;2023-04-24T08:12:35;10.40;99.90
15765;DHT22;7983;50.744;7.086;2023-04-24T08:15:01;10.40;99.90
15765;DHT22;7983;50.744;7.086;2023-04-24T08:17:27;10.30;99.90
15765;DHT22;7983;50.744;7.086;2023-04-24T08:19:52;10.30;99.90
15765;DHT22;7983;50.744;7.086;2023-04-24T08:22:24;10.30;99.90
15765;DHT22;7983;50.744;7.086;2023-04-24T08:24:52;10.20;99.90
15765;DHT22;7983;50.744;7.086;2023-04-24T08:27:18;10.10;99.90
15765;DHT22;7983;50.744;7.086;2023-04-24T08:29:44;10.10;99.90
15765;DHT22;7983;50.744;7.086;2023-04-24T08:32:10;10.10;99.90
15765;DHT22;7983;50.744;7.086;2023-04-24T08:34:35;10.00;99.90
15765;DHT22;7983;50.744;7.086;2023-04-24T08:37:03;9.90;99.90
15765;DHT22;7983;50.744;7.086;2023-04-24T08:39:29;9.90;99.90
15765;DHT22;7983;50.744;7.086;2023-04-24T08:41:55;9.90;99.90
15765;DHT22;7983;50.744;7.086;2023-04-24T08:44:21;9.80;99.90
15765;DHT22;7983;50.744;7.086;2023-04-24T08:46:49;9.80;99.90
15765;DHT22;7983;50.744;7.086;2023-04-24T08:49:17;9.70;99.90
15765;DHT22;7983;50.744;7.086;2023-04-24T08:51:44;9.60;99.90
15765;DHT22;7983;50.744;7.086;2023-04-24T08:54:12;9.50;99.90
15765;DHT22;7983;50.744;7.086;2023-04-24T08:56:43;9.40;99.90
15765;DHT22;7983;50.744;7.086;2023-04-24T08:59:10;9.30;99.90
15765;DHT22;7983;50.744;7.086;2023-04-24T09:01:40;9.10;99.90
15765;DHT22;7983;50.744;7.086;2023-04-24T09:04:09;9.00;99.90
15765;DHT22;7983;50.744;7.086;2023-04-24T09:06:38;9.00;99.90
15765;DHT22;7983;50.744;7.086;2023-04-24T09:09:04;8.90;99.90
15765;DHT22;7983;50.744;7.086;2023-04-24T09:11:31;8.90;99.90
15765;DHT22;7983;50.744;7.086;2023-04-24T09:13:58;8.90;99.90
15765;DHT22;7983;50.744;7.086;2023-04-24T09:16:25;8.80;99.90
15765;DHT22;7983;50.744;7.086;2023-04-24T09:18:55;8.90;99.90
15765;DHT22;7983;50.744;7.086;2023-04-24T09:21:21;8.80;99.90
15765;DHT22;7983;50.744;7.086;2023-04-24T09:23:57;8.80;99.90
15765;DHT22;7983;50.744;7.086;2023-04-24T09:26:31;8.90;99.90
15765;DHT22;7983;50.744;7.086;2023-04-24T09:29:00;8.90;99.90
15765;DHT22;7983;50.744;7.086;2023-04-24T09:31:31;8.90;99.90
15765;DHT22;7983;50.744;7.086;2023-04-24T09:33:59;8.90;99.90
15765;DHT22;7983;50.744;7.086;2023-04-24T09:36:36;8.90;99.90
15765;DHT22;7983;50.744;7.086;2023-04-24T09:39:13;8.90;99.90
15765;DHT22;7983;50.744;7.086;2023-04-24T09:41:48;8.90;99.90
15765;DHT22;7983;50.744;7.086;2023-04-24T09:44:21;8.90;99.90
15765;DHT22;7983;50.744;7.086;2023-04-24T09:46:59;8.90;99.90
15765;DHT22;7983;50.744;7.086;2023-04-24T09:49:31;8.90;99.90
15765;DHT22;7983;50.744;7.086;2023-04-24T09:52:11;9.00;99.90
15765;DHT22;7983;50.744;7.086;2023-04-24T09:54:40;9.00;99.90
15765;DHT22;7983;50.744;7.086;2023-04-24T09:57:08;9.00;99.90
15765;DHT22;7983;50.744;7.086;2023-04-24T09:59:34;9.00;99.90
15765;DHT22;7983;50.744;7.086;2023-04-24T10:02:01;9.10;99.90
15765;DHT22;7983;50.744;7.086;2023-04-24T10:04:28;9.10;99.90
15765;DHT22;7983;50.744;7.086;2023-04-24T10:06:57;9.20;99.90
15765;DHT22;7983;50.744;7.086;2023-04-24T10:09:24;9.20;99.90
15765;DHT22;7983;50.744;7.086;2023-04-24T10:11:52;9.30;99.90
15765;DHT22;7983;50.744;7.086;2023-04-24T10:14:23;9.30;99.90
15765;DHT22;7983;50.744;7.086;2023-04-24T10:16:49;9.40;99.90
15765;DHT22;7983;50.744;7.086;2023-04-24T10:19:18;9.40;99.90
15765;DHT22;7983;50.744;7.086;2023-04-24T10:21:48;9.40;99.90
15765;DHT22;7983;50.744;7.086;2023-04-24T10:24:18;9.50;99.90
15765;DHT22;7983;50.744;7.086;2023-04-24T10:26:44;9.50;99.90
15765;DHT22;7983;50.744;7.086;2023-04-24T10:29:17;9.50;99.90
15765;DHT22;7983;50.744;7.086;2023-04-24T10:31:44;9.60;99.90
15765;DHT22;7983;50.744;7.086;2023-04-24T10:34:15;9.60;99.90
15765;DHT22;7983;50.744;7.086;2023-04-24T10:37:01;9.70;99.90
15765;DHT22;7983;50.744;7.086;2023-04-24T10:39:30;9.80;99.90
15765;DHT22;7983;50.744;7.086;2023-04-24T10:41:58;9.80;99.90
15765;DHT22;7983;50.744;7.086;2023-04-24T10:44:24;9.90;99.90
15765;DHT22;7983;50.744;7.086;2023-04-24T10:46:57;10.00;99.90
15765;DHT22;7983;50.744;7.086;2023-04-24T10:49:31;10.10;99.90
15765;DHT22;7983;50.744;7.086;2023-04-24T10:52:02;10.20;99.90
15765;DHT22;7983;50.744;7.086;2023-04-24T10:59:50;10.30;99.90
15765;DHT22;7983;50.744;7.086;2023-04-24T11:02:17;10.40;99.90
15765;DHT22;7983;50.744;7.086;2023-04-24T11:04:45;10.40;99.90
15765;DHT22;7983;50.744;7.086;2023-04-24T11:07:11;10.40;99.90
15765;DHT22;7983;50.744;7.086;2023-04-24T11:09:38;10.40;99.90
15765;DHT22;7983;50.744;7.086;2023-04-24T11:12:16;10.40;99.90
15765;DHT22;7983;50.744;7.086;2023-04-24T11:17:30;10.50;99.90
15765;DHT22;7983;50.744;7.086;2023-04-24T11:20:10;10.50;99.90
15765;DHT22;7983;50.744;7.086;2023-04-24T11:22:39;10.60;99.90
15765;DHT22;7983;50.744;7.086;2023-04-24T11:25:10;10.70;99.90
15765;DHT22;7983;50.744;7.086;2023-04-24T11:27:41;10.80;99.90
15765;DHT22;7983;50.744;7.086;2023-04-24T11:30:09;10.80;99.90
15765;DHT22;7983;50.744;7.086;2023-04-24T11:32:36;10.90;99.90
15765;DHT22;7983;50.744;7.086;2023-04-24T11:35:14;11.10;99.90
15765;DHT22;7983;50.744;7.086;2023-04-24T11:37:55;11.20;99.90
15765;DHT22;7983;50.744;7.086;2023-04-24T11:40:23;11.40;99.90
15765;DHT22;7983;50.744;7.086;2023-04-24T11:42:55;11.60;99.90
15765;DHT22;7983;50.744;7.086;2023-04-24T11:45:33;11.80;99.90
15765;DHT22;7983;50.744;7.086;2023-04-24T11:47:59;11.90;99.90
15765;DHT22;7983;50.744;7.086;2023-04-24T11:50:28;12.00;99.90
15765;DHT22;7983;50.744;7.086;2023-04-24T11:52:56;12.00;99.90
15765;DHT22;7983;50.744;7.086;2023-04-24T11:57:54;12.10;99.90
15765;DHT22;7983;50.744;7.086;2023-04-24T12:00:29;12.10;99.90
15765;DHT22;7983;50.744;7.086;2023-04-24T12:05:36;12.30;99.90
15765;DHT22;7983;50.744;7.086;2023-04-24T12:08:04;12.40;99.90
15765;DHT22;7983;50.744;7.086;2023-04-24T12:10:34;12.40;99.90
15765;DHT22;7983;50.744;7.086;2023-04-24T12:13:00;12.50;99.90
15765;DHT22;7983;50.744;7.086;2023-04-24T12:15:30;12.60;99.90
15765;DHT22;7983;50.744;7.086;2023-04-24T12:17:56;12.60;99.90
15765;DHT22;7983;50.744;7.086;2023-04-24T12:20:30;12.60;99.90
15765;DHT22;7983;50.744;7.086;2023-04-24T12:23:00;12.60;99.90
15765;DHT22;7983;50.744;7.086;2023-04-24T12:25:31;12.60;99.90
15765;DHT22;7983;50.744;7.086;2023-04-24T12:30:29;12.60;99.90
15765;DHT22;7983;50.744;7.086;2023-04-24T12:32:58;12.60;99.90
15765;DHT22;7983;50.744;7.086;2023-04-24T12:35:30;12.70;99.90
15765;DHT22;7983;50.744;7.086;2023-04-24T12:38:06;12.80;99.90
15765;DHT22;7983;50.744;7.086;2023-04-24T12:40:32;13.00;99.90
15765;DHT22;7983;50.744;7.086;2023-04-24T12:42:57;13.00;99.90
15765;DHT22;7983;50.744;7.086;2023-04-24T12:45:23;13.10;99.90
15765;DHT22;7983;50.744;7.086;2023-04-24T12:47:50;13.10;99.90
15765;DHT22;7983;50.744;7.086;2023-04-24T12:50:16;13.20;99.90
15765;DHT22;7983;50.744;7.086;2023-04-24T12:52:42;13.40;99.90
15765;DHT22;7983;50.744;7.086;2023-04-24T12:55:08;13.60;99.90
15765;DHT22;7983;50.744;7.086;2023-04-24T12:57:38;13.70;99.90
15765;DHT22;7983;50.744;7.086;2023-04-24T13:00:07;13.90;99.90
15765;DHT22;7983;50.744;7.086;2023-04-24T13:02:33;14.00;99.90
15765;DHT22;7983;50.744;7.086;2023-04-24T13:04:59;14.10;99.90
15765;DHT22;7983;50.744;7.086;2023-04-24T13:07:26;14.20;99.90
15765;DHT22;7983;50.744;7.086;2023-04-24T13:09:52;14.20;99.90
15765;DHT22;7983;50.744;7.086;2023-04-24T13:12:19;14.20;99.90
15765;DHT22;7983;50.744;7.086;2023-04-24T13:14:49;14.20;99.90
15765;DHT22;7983;50.744;7.086;2023-04-24T13:17:14;14.20;99.90
15765;DHT22;7983;50.744;7.086;2023-04-24T13:19:43;14.20;99.90
15765;DHT22;7983;50.744;7.086;2023-04-24T13:22:11;14.20;99.90
15765;DHT22;7983;50.744;7.086;2023-04-24T13:24:38;14.20;99.90
15765;DHT22;7983;50.744;7.086;2023-04-24T13:27:05;14.20;99.90
15765;DHT22;7983;50.744;7.086;2023-04-24T13:29:35;14.20;99.90
15765;DHT22;7983;50.744;7.086;2023-04-24T13:32:01;14.30;99.90
15765;DHT22;7983;50.744;7.086;2023-04-24T13:34:27;14.40;99.90
15765;DHT22;7983;50.744;7.086;2023-04-24T13:36:56;14.40;99.90
15765;DHT22;7983;50.744;7.086;2023-04-24T13:39:22;14.50;99.90
15765;DHT22;7983;50.744;7.086;2023-04-24T13:41:48;14.50;99.90
15765;DHT22;7983;50.744;7.086;2023-04-24T13:44:18;14.40;99.90
15765;DHT22;7983;50.744;7.086;2023-04-24T13:46:45;14.40;99.90
15765;DHT22;7983;50.744;7.086;2023-04-24T13:49:15;14.50;99.90
15765;DHT22;7983;50.744;7.086;2023-04-24T13:51:44;14.70;99.90
15765;DHT22;7983;50.744;7.086;2023-04-24T13:54:12;14.90;99.90
15765;DHT22;7983;50.744;7.086;2023-04-24T13:56:39;15.20;99.90
15765;DHT22;7983;50.744;7.086;2023-04-24T13:59:07;15.30;99.90
15765;DHT22;7983;50.744;7.086;2023-04-24T14:01:34;15.40;99.90
15765;DHT22;7983;50.744;7.086;2023-04-24T14:03:59;15.40;99.90
15765;DHT22;7983;50.744;7.086;2023-04-24T14:06:25;15.30;99.90
15765;DHT22;7983;50.744;7.086;2023-04-24T14:08:54;15.20;99.90
15765;DHT22;7983;50.744;7.086;2023-04-24T14:11:21;15.00;99.90
15765;DHT22;7983;50.744;7.086;2023-04-24T14:13:47;14.80;99.90
15765;DHT22;7983;50.744;7.086;2023-04-24T14:16:13;14.70;99.90
15765;DHT22;7983;50.744;7.086;2023-04-24T14:18:42;14.50;99.90
15765;DHT22;7983;50.744;7.086;2023-04-24T14:21:09;14.20;99.90
15765;DHT22;7983;50.744;7.086;2023-04-24T14:23:35;14.10;99.90
15765;DHT22;7983;50.744;7.086;2023-04-24T14:26:03;14.00;99.90
15765;DHT22;7983;50.744;7.086;2023-04-24T14:28:29;14.00;99.90
15765;DHT22;7983;50.744;7.086;2023-04-24T14:30:54;14.10;99.90
15765;DHT22;7983;50.744;7.086;2023-04-24T14:33:20;14.20;99.90
15765;DHT22;7983;50.744;7.086;2023-04-24T14:35:46;14.40;99.90
15765;DHT22;7983;50.744;7.086;2023-04-24T14:38:14;14.50;99.90
15765;DHT22;7983;50.744;7.086;2023-04-24T14:40:40;14.70;99.90
15765;DHT22;7983;50.744;7.086;2023-04-24T14:43:06;14.90;99.90
15765;DHT22;7983;50.744;7.086;2023-04-24T14:45:32;15.10;99.90
15765;DHT22;7983;50.744;7.086;2023-04-24T14:47:58;15.20;99.90
15765;DHT22;7983;50.744;7.086;2023-04-24T14:50:26;15.30;99.90
15765;DHT22;7983;50.744;7.086;2023-04-24T14:52:55;15.30;99.90
15765;DHT22;7983;50.744;7.086;2023-04-24T14:55:26;15.30;99.90
15765;DHT22;7983;50.744;7.086;2023-04-24T14:57:52;15.40;99.90
15765;DHT22;7983;50.744;7.086;2023-04-24T15:00:18;15.40;99.90
15765;DHT22;7983;50.744;7.086;2023-04-24T15:02:45;15.40;99.90
15765;DHT22;7983;50.744;7.086;2023-04-24T15:05:11;15.40;99.90
15765;DHT22;7983;50.744;7.086;2023-04-24T15:07:37;15.40;99.90
15765;DHT22;7983;50.744;7.086;2023-04-24T15:10:09;15.50;99.90
15765;DHT22;7983;50.744;7.086;2023-04-24T15:12:35;15.50;99.90
15765;DHT22;7983;50.744;7.086;2023-04-24T15:15:01;15.60;99.90
15765;DHT22;7983;50.744;7.086;2023-04-24T15:17:26;15.70;99.90
15765;DHT22;7983;50.744;7.086;2023-04-24T15:19:55;15.80;99.90
15765;DHT22;7983;50.744;7.086;2023-04-24T15:22:21;16.00;99.90
15765;DHT22;7983;50.744;7.086;2023-04-24T15:24:48;16.10;99.90
15765;DHT22;7983;50.744;7.086;2023-04-24T15:27:17;16.10;99.90
15765;DHT22;7983;50.744;7.086;2023-04-24T15:29:42;16.00;99.90
15765;DHT22;7983;50.744;7.086;2023-04-24T15:32:08;15.90;99.90
15765;DHT22;7983;50.744;7.086;2023-04-24T15:34:34;15.90;99.90
15765;DHT22;7983;50.744;7.086;2023-04-24T15:37:00;16.00;99.90
15765;DHT22;7983;50.744;7.086;2023-04-24T15:39:30;16.10;99.90
15765;DHT22;7983;50.744;7.086;2023-04-24T15:41:56;16.10;99.90
15765;DHT22;7983;50.744;7.086;2023-04-24T15:44:24;16.20;99.90
15765;DHT22;7983;50.744;7.086;2023-04-24T15:46:50;16.20;99.90
15765;DHT22;7983;50.744;7.086;2023-04-24T15:49:17;16.20;99.90
15765;DHT22;7983;50.744;7.086;2023-04-24T15:51:43;16.40;99.90
15765;DHT22;7983;50.744;7.086;2023-04-24T15:54:09;16.50;99.90
15765;DHT22;7983;50.744;7.086;2023-04-24T15:56:34;16.60;99.90
15765;DHT22;7983;50.744;7.086;2023-04-24T15:59:01;16.70;99.90
15765;DHT22;7983;50.744;7.086;2023-04-24T16:01:30;16.80;99.90
15765;DHT22;7983;50.744;7.086;2023-04-24T16:03:55;16.70;99.90
15765;DHT22;7983;50.744;7.086;2023-04-24T16:06:24;16.60;99.90